createdAt,value
2023-04-03T00:00:29.650Z,99074.88
2023-04-03T00:01:33.133Z,99076.39
2023-04-03T00:02:35.215Z,99076.89
2023-04-03T00:03:38.465Z,99082.45
2023-04-03T00:04:40.528Z,99075.63
2023-04-03T00:05:43.200Z,99070.56
2023-04-03T00:06:49.548Z,99076.39
2023-04-03T00:07:51.502Z,99068.55
2023-04-03T00:08:56.326Z,99077.66
2023-04-03T00:09:58.969Z,99073.34
2023-04-03T00:11:01.373Z,99078.91
2023-04-03T00:12:03.495Z,99076.13
2023-04-03T00:13:05.436Z,99078.14
2023-04-03T00:14:07.928Z,99074.60
2023-04-03T00:15:10.351Z,99075.86
2023-04-03T00:16:17.438Z,99069.05
2023-04-03T00:17:23.742Z,99082.94
2023-04-03T00:18:25.741Z,99067.03
2023-04-03T00:19:29.151Z,99077.38
2023-04-03T00:20:35.061Z,99074.11
2023-04-03T00:21:39.284Z,99077.66
2023-04-03T00:22:41.305Z,99082.45
2023-04-03T00:23:45.860Z,99077.38
2023-04-03T00:24:47.787Z,99076.13
2023-04-03T00:25:52.261Z,99076.13
2023-04-03T00:26:54.678Z,99076.13
2023-04-03T00:28:00.445Z,99078.91
2023-04-03T00:29:02.999Z,99076.89
2023-04-03T00:30:11.478Z,99076.89
2023-04-03T00:31:17.056Z,99075.63
2023-04-03T00:32:19.413Z,99075.63
2023-04-03T00:33:22.946Z,99073.62
2023-04-03T00:34:25.563Z,99073.34
2023-04-03T00:35:29.884Z,99074.88
2023-04-03T00:36:33.859Z,99073.34
2023-04-03T00:37:36.069Z,99076.89
2023-04-03T00:38:38.019Z,99076.39
2023-04-03T00:39:40.103Z,99071.60
2023-04-03T00:40:44.821Z,99079.17
2023-04-03T00:41:46.797Z,99076.39
2023-04-03T00:42:51.659Z,99066.80
2023-04-03T00:43:54.337Z,99075.14
2023-04-03T00:45:00.121Z,99072.36
2023-04-03T00:46:08.170Z,99068.06
2023-04-03T00:47:15.085Z,99067.30
2023-04-03T00:48:20.650Z,99065.28
2023-04-03T00:49:22.751Z,99065.28
2023-04-03T00:50:25.208Z,99062.50
2023-04-03T00:51:27.170Z,99063.27
2023-04-03T00:52:31.104Z,99061.25
2023-04-03T00:53:40.227Z,99065.28
2023-04-03T00:54:42.194Z,99072.36
2023-04-03T00:55:45.256Z,99062.77
2023-04-03T00:56:50.565Z,99060.75
2023-04-03T00:57:53.339Z,99062.77
2023-04-03T00:59:00.212Z,99066.80
2023-04-03T01:01:18.295Z,99063.33
2023-04-03T01:02:21.357Z,99059.99
2023-04-03T01:03:24.161Z,99062.01
2023-04-03T01:04:35.281Z,99064.02
2023-04-03T01:05:40.772Z,99062.77
2023-04-03T01:06:43.216Z,99062.77
2023-04-03T01:07:53.870Z,99063.53
2023-04-03T01:08:59.125Z,99065.82
2023-04-03T01:10:05.608Z,99054.70
2023-04-03T01:11:07.717Z,99061.78
2023-04-03T01:12:28.499Z,99065.82
2023-04-03T01:13:32.557Z,99060.27
2023-04-03T01:14:38.098Z,99059.50
2023-04-03T01:15:40.253Z,99059.50
2023-04-03T01:16:42.869Z,99065.82
2023-04-03T01:17:48.415Z,99065.05
2023-04-03T01:18:50.965Z,99058.73
2023-04-03T01:21:32.515Z,99058.03
2023-04-03T01:22:51.761Z,99057.48
2023-04-03T01:24:07.609Z,99060.27
2023-04-03T01:25:12.618Z,99059.50
2023-04-03T01:26:14.961Z,99062.28
2023-04-03T01:27:17.795Z,99057.48
2023-04-03T01:29:35.600Z,99052.48
2023-04-03T01:30:50.436Z,99048.11
2023-04-03T01:31:56.279Z,99055.19
2023-04-03T01:33:00.387Z,99054.43
2023-04-03T01:34:03.128Z,99055.95
2023-04-03T01:35:08.441Z,99053.17
2023-04-03T01:36:15.307Z,99059.50
2023-04-03T01:37:17.369Z,99055.95
2023-04-03T01:38:20.740Z,99055.95
2023-04-03T01:39:23.856Z,99059.50
2023-04-03T01:40:26.855Z,99059.00
2023-04-03T01:41:29.186Z,99059.00
2023-04-03T01:42:34.434Z,99051.92
2023-04-03T01:43:37.567Z,99057.75
2023-04-03T01:44:40.012Z,99064.83
2023-04-03T01:45:42.096Z,99063.58
2023-04-03T01:46:46.154Z,99060.03
2023-04-03T01:47:48.297Z,99066.36
2023-04-03T01:48:51.630Z,99064.83
2023-04-03T01:49:53.631Z,99057.75
2023-04-03T01:50:56.317Z,99062.55
2023-04-03T01:51:58.368Z,99059.50
2023-04-03T01:53:00.433Z,99062.28
2023-04-03T01:54:03.781Z,99065.82
2023-04-03T01:55:08.333Z,99064.30
2023-04-03T01:56:12.158Z,99059.50
2023-04-03T01:57:14.446Z,99059.50
2023-04-03T01:58:17.200Z,99064.30
2023-04-03T01:59:22.263Z,99063.04
2023-04-03T02:00:24.697Z,99057.48
2023-04-03T02:01:27.087Z,99061.02
2023-04-03T02:02:29.767Z,99065.82
2023-04-03T02:03:32.107Z,99058.24
2023-04-03T02:04:36.956Z,99062.28
2023-04-03T02:05:39.695Z,99060.75
2023-04-03T02:06:44.242Z,99064.30
2023-04-03T02:07:49.778Z,99061.02
2023-04-03T02:08:51.893Z,99061.02
2023-04-03T02:09:55.935Z,99067.34
2023-04-03T02:11:01.508Z,99061.02
2023-04-03T02:12:04.847Z,99065.33
2023-04-03T02:13:07.769Z,99060.27
2023-04-03T02:14:15.873Z,99060.27
2023-04-03T02:15:18.344Z,99059.50
2023-04-03T02:16:20.956Z,99061.02
2023-04-03T02:17:25.012Z,99063.80
2023-04-03T02:18:26.945Z,99063.80
2023-04-03T02:19:30.640Z,99065.82
2023-04-03T02:20:33.725Z,99062.28
2023-04-03T02:21:35.827Z,99064.30
2023-04-03T02:22:37.889Z,99067.08
2023-04-03T02:23:39.847Z,99067.84
2023-04-03T02:24:42.304Z,99064.30
2023-04-03T02:25:47.166Z,99065.05
2023-04-03T02:26:49.450Z,99070.88
2023-04-03T02:27:53.329Z,99067.12
2023-04-03T02:28:55.896Z,99066.11
2023-04-03T02:29:59.463Z,99073.73
2023-04-03T02:31:01.917Z,99061.63
2023-04-03T02:32:05.401Z,99066.95
2023-04-03T02:33:08.248Z,99067.49
2023-04-03T02:34:11.191Z,99068.77
2023-04-03T02:35:15.645Z,99066.02
2023-04-03T02:36:18.137Z,99065.80
2023-04-03T02:37:22.012Z,99066.33
2023-04-03T02:38:24.857Z,99064.84
2023-04-03T02:39:27.942Z,99065.84
2023-04-03T02:40:30.701Z,99062.06
2023-04-03T02:41:32.753Z,99066.14
2023-04-03T02:42:34.841Z,99065.15
2023-04-03T02:43:38.778Z,99067.70
2023-04-03T02:44:41.498Z,99066.67
2023-04-03T02:45:44.868Z,99064.16
2023-04-03T02:46:47.207Z,99067.20
2023-04-03T02:47:49.275Z,99068.27
2023-04-03T02:48:51.305Z,99059.91
2023-04-03T02:49:53.852Z,99070.05
2023-04-03T02:50:55.996Z,99067.53
2023-04-03T02:51:58.045Z,99060.70
2023-04-03T02:53:00.104Z,99057.42
2023-04-03T02:54:02.472Z,99066.80
2023-04-03T02:56:22.936Z,99056.72
2023-04-03T02:57:25.021Z,99065.54
2023-04-03T02:58:28.186Z,99066.30
2023-04-03T02:59:30.512Z,99072.63
2023-04-03T03:00:32.653Z,99065.54
2023-04-03T03:01:35.651Z,99067.56
2023-04-03T03:02:37.928Z,99063.75
2023-04-03T03:03:39.845Z,99066.80
2023-04-03T03:04:41.761Z,99069.32
2023-04-03T03:05:43.871Z,99068.80
2023-04-03T03:06:46.218Z,99061.44
2023-04-03T03:07:48.350Z,99066.70
2023-04-03T03:08:50.407Z,99070.48
2023-04-03T03:09:52.484Z,99064.16
2023-04-03T03:10:54.730Z,99068.70
2023-04-03T03:11:57.735Z,99069.22
2023-04-03T03:12:59.840Z,99065.91
2023-04-03T03:14:02.250Z,99070.72
2023-04-03T03:15:05.579Z,99069.69
2023-04-03T03:16:08.766Z,99065.88
2023-04-03T03:17:10.906Z,99064.35
2023-04-03T03:18:12.958Z,99068.39
2023-04-03T03:19:15.030Z,99069.65
2023-04-03T03:20:17.410Z,99066.11
2023-04-03T03:21:20.871Z,99067.09
2023-04-03T03:22:22.797Z,99069.12
2023-04-03T03:23:25.852Z,99065.34
2023-04-03T03:24:27.844Z,99065.83
2023-04-03T03:25:29.804Z,99065.83
2023-04-03T03:26:32.042Z,99066.33
2023-04-03T03:27:34.130Z,99065.56
2023-04-03T03:28:36.788Z,99059.73
2023-04-03T03:29:38.747Z,99070.86
2023-04-03T03:30:41.225Z,99071.36
2023-04-03T03:31:43.288Z,99069.07
2023-04-03T03:32:45.534Z,99074.36
2023-04-03T03:33:47.571Z,99073.34
2023-04-03T03:34:49.901Z,99075.36
2023-04-03T03:35:52.965Z,99063.47
2023-04-03T03:36:54.925Z,99073.83
2023-04-03T03:37:56.988Z,99075.09
2023-04-03T03:38:59.148Z,99074.33
2023-04-03T03:40:01.753Z,99074.33
2023-04-03T03:41:04.732Z,99074.84
2023-04-03T03:42:07.894Z,99067.76
2023-04-03T03:43:09.945Z,99071.80
2023-04-03T03:44:12.632Z,99074.58
2023-04-03T03:45:16.039Z,99071.04
2023-04-03T03:46:18.423Z,99073.05
2023-04-03T03:47:20.792Z,99066.73
2023-04-03T03:48:22.966Z,99071.53
2023-04-03T03:49:25.196Z,99072.78
2023-04-03T03:50:28.207Z,99075.56
2023-04-03T03:51:30.572Z,99075.56
2023-04-03T03:52:33.230Z,99074.04
2023-04-03T03:53:35.759Z,99073.28
2023-04-03T03:54:39.850Z,99080.37
2023-04-03T03:55:42.300Z,99083.64
2023-04-03T03:56:45.189Z,99080.86
2023-04-03T03:57:47.601Z,99074.53
2023-04-03T03:58:49.874Z,99082.88
2023-04-03T03:59:52.328Z,99076.06
2023-04-03T04:00:54.892Z,99074.04
2023-04-03T04:01:57.294Z,99079.61
2023-04-03T04:02:59.751Z,99076.83
2023-04-03T04:04:02.439Z,99081.89
2023-04-03T04:05:07.263Z,99085.16
2023-04-03T04:06:10.178Z,99078.84
2023-04-03T04:07:12.780Z,99075.30
2023-04-03T04:08:15.779Z,99080.86
2023-04-03T04:09:18.752Z,99075.30
2023-04-03T04:10:21.797Z,99078.08
2023-04-03T04:11:24.104Z,99076.55
2023-04-03T04:12:26.765Z,99075.30
2023-04-03T04:13:29.084Z,99074.53
2023-04-03T04:14:31.435Z,99081.63
2023-04-03T04:15:33.777Z,99082.38
2023-04-03T04:16:36.445Z,99083.14
2023-04-03T04:17:40.458Z,99078.84
2023-04-03T04:18:44.311Z,99078.08
2023-04-03T04:19:46.674Z,99075.79
2023-04-03T04:20:49.246Z,99078.57
2023-04-03T04:21:53.389Z,99085.39
2023-04-03T04:22:55.721Z,99077.05
2023-04-03T04:23:58.185Z,99079.06
2023-04-03T04:25:00.645Z,99083.86
2023-04-03T04:26:02.720Z,99078.30
2023-04-03T04:27:06.617Z,99083.86
2023-04-03T04:28:09.514Z,99080.81
2023-04-03T04:29:13.049Z,99080.05
2023-04-03T04:30:15.257Z,99082.07
2023-04-03T04:31:17.581Z,99088.66
2023-04-03T04:32:19.886Z,99094.98
2023-04-03T04:33:21.982Z,99083.86
2023-04-03T04:34:24.020Z,99082.61
2023-04-03T04:35:26.505Z,99090.19
2023-04-03T04:36:28.652Z,99090.19
2023-04-03T04:37:30.809Z,99083.10
2023-04-03T04:38:34.062Z,99092.97
2023-04-03T04:39:36.237Z,99092.97
2023-04-03T04:40:39.484Z,99088.66
2023-04-03T04:41:41.760Z,99088.66
2023-04-03T04:42:44.111Z,99087.90
2023-04-03T04:43:47.101Z,99091.44
2023-04-03T04:44:49.547Z,99089.92
2023-04-03T04:46:06.547Z,99092.70
2023-04-03T04:47:10.970Z,99091.44
2023-04-03T04:48:13.049Z,99093.73
2023-04-03T04:49:15.135Z,99088.93
2023-04-03T04:50:17.412Z,99089.42
2023-04-03T04:51:20.139Z,99089.42
2023-04-03T04:52:22.302Z,99089.42
2023-04-03T04:53:24.635Z,99091.71
2023-04-03T04:54:26.696Z,99090.95
2023-04-03T04:55:29.151Z,99088.93
2023-04-03T04:56:31.942Z,99086.91
2023-04-03T04:57:34.510Z,99088.93
2023-04-03T04:58:37.798Z,99091.71
2023-04-03T04:59:40.651Z,99088.17
2023-04-03T05:00:44.465Z,99082.61
2023-04-03T05:01:47.179Z,99084.63
2023-04-03T05:02:51.156Z,99082.61
2023-04-03T05:03:55.044Z,99088.17
2023-04-03T05:04:57.741Z,99087.41
2023-04-03T05:06:02.055Z,99091.71
2023-04-03T05:07:05.814Z,99092.47
2023-04-03T05:08:09.742Z,99095.25
2023-04-03T05:09:13.416Z,99094.49
2023-04-03T05:10:18.112Z,99096.02
2023-04-03T05:11:21.278Z,99095.52
2023-04-03T05:12:26.277Z,99091.22
2023-04-03T05:13:30.500Z,99091.22
2023-04-03T05:14:33.099Z,99094.00
2023-04-03T05:15:37.093Z,99093.23
2023-04-03T05:16:39.873Z,99093.23
2023-04-03T05:17:43.459Z,99096.02
2023-04-03T05:18:48.504Z,99098.03
2023-04-03T05:19:53.406Z,99097.54
2023-04-03T05:20:56.406Z,99094.00
2023-04-03T05:22:02.508Z,99091.22
2023-04-03T05:23:05.400Z,99093.23
2023-04-03T05:24:09.332Z,99096.02
2023-04-03T05:25:13.266Z,99096.02
2023-04-03T05:26:18.693Z,99098.30
2023-04-03T05:27:22.404Z,99094.77
2023-04-03T05:28:26.286Z,99103.11
2023-04-03T05:29:28.549Z,99098.80
2023-04-03T05:30:30.889Z,99098.80
2023-04-03T05:31:32.989Z,99103.87
2023-04-03T05:32:35.729Z,99100.33
2023-04-03T05:33:39.877Z,99105.12
2023-04-03T05:34:44.170Z,99108.94
2023-04-03T05:35:46.255Z,99101.36
2023-04-03T05:36:50.782Z,99103.38
2023-04-03T05:37:54.384Z,99111.72
2023-04-03T05:38:56.744Z,99104.90
2023-04-03T05:39:59.009Z,99102.12
2023-04-03T05:41:01.073Z,99100.09
2023-04-03T05:42:03.967Z,99104.90
2023-04-03T05:43:06.381Z,99110.45
2023-04-03T05:44:10.735Z,99109.70
2023-04-03T05:45:13.528Z,99106.91
2023-04-03T05:46:17.783Z,99106.91
2023-04-03T05:47:20.923Z,99111.72
2023-04-03T05:48:23.380Z,99102.61
2023-04-03T05:49:25.737Z,99111.72
2023-04-03T05:50:28.221Z,99110.95
2023-04-03T05:51:34.285Z,99109.70
2023-04-03T05:52:40.595Z,99108.94
2023-04-03T05:53:42.773Z,99111.72
2023-04-03T05:54:45.190Z,99116.02
2023-04-03T05:55:49.584Z,99111.72
2023-04-03T05:56:52.379Z,99109.70
2023-04-03T05:57:54.863Z,99109.97
2023-04-03T05:58:57.685Z,99110.73
2023-04-03T06:00:01.266Z,99117.81
2023-04-03T06:01:04.835Z,99110.23
2023-04-03T06:02:07.311Z,99114.52
2023-04-03T06:03:09.980Z,99115.28
2023-04-03T06:04:12.691Z,99113.26
2023-04-03T06:05:15.488Z,99116.80
2023-04-03T06:06:17.963Z,99114.02
2023-04-03T06:07:22.442Z,99125.14
2023-04-03T06:08:25.250Z,99125.14
2023-04-03T06:09:28.011Z,99120.34
2023-04-03T06:10:30.243Z,99123.13
2023-04-03T06:11:32.707Z,99124.16
2023-04-03T06:12:36.059Z,99130.48
2023-04-03T06:13:38.619Z,99129.72
2023-04-03T06:14:41.811Z,99128.19
2023-04-03T06:15:44.134Z,99127.70
2023-04-03T06:16:47.167Z,99127.70
2023-04-03T06:17:50.426Z,99129.98
2023-04-03T06:18:52.797Z,99126.94
2023-04-03T06:19:54.836Z,99129.72
2023-04-03T06:20:57.434Z,99129.72
2023-04-03T06:21:59.531Z,99129.72
2023-04-03T06:23:05.775Z,99130.48
2023-04-03T06:24:10.432Z,99134.79
2023-04-03T06:25:14.448Z,99141.11
2023-04-03T06:26:19.997Z,99137.08
2023-04-03T06:27:25.541Z,99146.19
2023-04-03T06:28:30.346Z,99139.36
2023-04-03T06:29:33.154Z,99146.95
2023-04-03T06:30:39.521Z,99139.36
2023-04-03T06:31:43.876Z,99133.80
2023-04-03T06:32:47.231Z,99142.14
2023-04-03T06:33:51.906Z,99140.13
2023-04-03T06:34:55.746Z,99137.34
2023-04-03T06:35:58.812Z,99140.13
2023-04-03T06:37:01.014Z,99138.11
2023-04-03T06:38:04.911Z,99136.58
2023-04-03T06:39:07.069Z,99144.93
2023-04-03T06:41:28.225Z,99138.66
2023-04-03T06:42:33.169Z,99138.88
2023-04-03T06:43:41.773Z,99145.20
2023-04-03T06:44:45.467Z,99144.70
2023-04-03T06:45:48.561Z,99148.25
2023-04-03T06:46:51.244Z,99149.02
2023-04-03T06:47:53.159Z,99140.67
2023-04-03T06:48:55.355Z,99145.73
2023-04-03T06:49:57.244Z,99147.27
2023-04-03T06:50:59.112Z,99149.28
2023-04-03T06:52:02.807Z,99150.05
2023-04-03T06:53:04.964Z,99152.06
2023-04-03T06:54:07.474Z,99153.59
2023-04-03T06:55:10.457Z,99152.83
2023-04-03T06:56:12.555Z,99154.35
2023-04-03T06:57:14.530Z,99154.35
2023-04-03T06:58:17.699Z,99157.89
2023-04-03T06:59:19.665Z,99156.64
2023-04-03T07:00:24.761Z,99154.59
2023-04-03T07:01:28.182Z,99158.14
2023-04-03T07:02:30.423Z,99156.88
2023-04-03T07:03:33.439Z,99158.41
2023-04-03T07:04:37.779Z,99155.63
2023-04-03T07:05:41.342Z,99161.95
2023-04-03T07:06:44.021Z,99165.49
2023-04-03T07:07:46.174Z,99157.15
2023-04-03T07:08:48.284Z,99155.13
2023-04-03T07:09:50.236Z,99158.67
2023-04-03T07:10:52.299Z,99161.72
2023-04-03T07:11:54.450Z,99156.16
2023-04-03T07:12:56.749Z,99161.72
2023-04-03T07:13:58.685Z,99154.91
2023-04-03T07:15:02.820Z,99156.42
2023-04-03T07:16:06.256Z,99152.39
2023-04-03T07:17:08.433Z,99159.97
2023-04-03T07:18:12.384Z,99152.39
2023-04-03T07:19:14.634Z,99155.94
2023-04-03T07:20:18.235Z,99163.02
2023-04-03T07:21:20.260Z,99155.44
2023-04-03T07:22:22.918Z,99157.73
2023-04-03T07:23:25.449Z,99160.52
2023-04-03T07:24:27.404Z,99160.78
2023-04-03T07:25:29.361Z,99160.28
2023-04-03T07:26:32.016Z,99157.01
2023-04-03T07:27:34.372Z,99159.79
2023-04-03T07:28:36.326Z,99163.30
2023-04-03T07:29:39.370Z,99166.09
2023-04-03T07:30:52.489Z,99170.39
2023-04-03T07:31:55.003Z,99171.16
2023-04-03T07:32:57.038Z,99163.08
2023-04-03T07:33:59.717Z,99163.08
2023-04-03T07:35:02.758Z,99161.82
2023-04-03T07:36:06.975Z,99170.94
2023-04-03T07:37:09.145Z,99163.34
2023-04-03T07:38:11.725Z,99167.69
2023-04-03T07:39:13.735Z,99162.87
2023-04-03T07:40:17.347Z,99162.87
2023-04-03T07:41:20.255Z,99166.42
2023-04-03T07:42:22.327Z,99175.53
2023-04-03T07:43:24.263Z,99164.41
2023-04-03T07:44:26.258Z,99173.52
2023-04-03T07:45:28.915Z,99174.28
2023-04-03T07:46:30.847Z,99171.00
2023-04-03T07:47:32.882Z,99168.98
2023-04-03T07:48:35.348Z,99174.05
2023-04-03T07:49:37.319Z,99181.41
2023-04-03T07:50:42.513Z,99170.28
2023-04-03T07:51:45.427Z,99179.39
2023-04-03T07:52:47.958Z,99171.80
2023-04-03T07:53:50.102Z,99171.31
2023-04-03T07:54:52.045Z,99179.66
2023-04-03T07:55:54.124Z,99174.33
2023-04-03T07:56:56.298Z,99178.37
2023-04-03T07:57:58.339Z,99174.86
2023-04-03T07:59:00.793Z,99175.86
2023-04-03T08:00:05.917Z,99175.86
2023-04-03T08:01:09.778Z,99176.62
2023-04-03T08:02:12.239Z,99180.92
2023-04-03T08:03:14.838Z,99184.47
2023-04-03T08:04:17.163Z,99169.56
2023-04-03T08:05:20.017Z,99179.44
2023-04-03T08:06:33.014Z,99179.70
2023-04-03T08:07:28.214Z,99180.47
2023-04-03T08:08:31.430Z,99175.16
2023-04-03T08:09:33.451Z,99177.19
2023-04-03T08:10:35.598Z,99175.43
2023-04-03T08:11:40.753Z,99165.06
2023-04-03T08:12:42.720Z,99185.31
2023-04-03T08:13:45.016Z,99179.24
2023-04-03T08:14:47.604Z,99182.79
2023-04-03T08:15:49.571Z,99175.20
2023-04-03T08:16:51.681Z,99187.83
2023-04-03T08:17:55.553Z,99184.55
2023-04-03T08:18:57.685Z,99178.48
2023-04-03T08:19:59.651Z,99186.34
2023-04-03T08:21:02.184Z,99190.16
2023-04-03T08:22:04.398Z,99191.68
2023-04-03T08:23:07.575Z,99182.83
2023-04-03T08:24:10.105Z,99187.91
2023-04-03T08:25:12.294Z,99181.83
2023-04-03T08:26:15.907Z,99187.67
2023-04-03T08:27:18.956Z,99187.67
2023-04-03T08:28:20.946Z,99179.58
2023-04-03T08:29:23.031Z,99189.45
2023-04-03T08:30:24.986Z,99185.41
2023-04-03T08:31:27.598Z,99187.67
2023-04-03T08:32:29.662Z,99195.53
2023-04-03T08:33:32.677Z,99187.94
2023-04-03T08:34:34.697Z,99193.00
2023-04-03T08:35:41.135Z,99193.00
2023-04-03T08:36:43.688Z,99192.51
2023-04-03T08:37:46.144Z,99196.82
2023-04-03T08:38:49.622Z,99197.58
2023-04-03T08:39:52.206Z,99195.55
2023-04-03T08:42:24.721Z,99196.34
2023-04-03T08:43:36.637Z,99195.82
2023-04-03T08:44:42.427Z,99200.13
2023-04-03T08:45:51.513Z,99196.59
2023-04-03T08:47:03.838Z,99196.09
2023-04-03T08:48:08.641Z,99196.84
2023-04-03T08:50:38.592Z,99200.19
2023-04-03T08:51:41.130Z,99201.69
2023-04-03T08:54:01.287Z,99195.14
2023-04-03T08:55:33.077Z,99205.23
2023-04-03T08:56:35.200Z,99203.97
2023-04-03T08:57:40.069Z,99198.66
2023-04-03T08:58:48.525Z,99199.42
2023-04-03T08:59:52.106Z,99200.95
2023-04-03T09:01:04.098Z,99197.66
2023-04-03T09:03:35.206Z,99204.28
2023-04-03T09:04:37.460Z,99196.66
2023-04-03T09:05:46.420Z,99205.02
2023-04-03T09:08:02.985Z,99202.52
2023-04-03T09:10:29.557Z,99206.81
2023-04-03T09:11:35.381Z,99199.21
2023-04-03T09:12:43.814Z,99205.55
2023-04-03T09:14:09.188Z,99200.73
2023-04-03T09:16:54.322Z,99205.58
2023-04-03T09:18:24.016Z,99206.56
2023-04-03T09:19:36.700Z,99196.44
2023-04-03T09:22:16.369Z,99199.50
2023-04-03T09:24:47.829Z,99201.28
2023-04-03T09:25:50.995Z,99195.45
2023-04-03T09:28:14.884Z,99203.58
2023-04-03T09:29:19.472Z,99201.02
2023-04-03T09:30:24.899Z,99202.55
2023-04-03T09:31:29.629Z,99198.75
2023-04-03T09:32:37.265Z,99210.67
2023-04-03T09:33:39.757Z,99202.56
2023-04-03T09:34:42.423Z,99206.88
2023-04-03T09:35:48.598Z,99197.24
2023-04-03T09:36:55.641Z,99207.89
2023-04-03T09:38:13.685Z,99199.03
2023-04-03T09:40:40.323Z,99200.08
2023-04-03T09:41:45.273Z,99205.88
2023-04-03T09:42:55.457Z,99201.57
2023-04-03T09:43:56.782Z,99199.55
2023-04-03T09:45:01.699Z,99206.64
2023-04-03T09:47:40.936Z,99200.33
2023-04-03T09:50:23.376Z,99209.20
2023-04-03T09:51:28.337Z,99211.23
2023-04-03T09:53:45.480Z,99211.23
2023-04-03T09:54:51.441Z,99208.44
2023-04-03T09:55:53.965Z,99216.05
2023-04-03T09:56:58.206Z,99214.52
2023-04-03T09:58:03.104Z,99214.52
2023-04-03T09:59:09.451Z,99217.31
2023-04-03T10:00:27.777Z,99223.36
2023-04-03T10:01:34.180Z,99218.55
2023-04-03T10:02:41.303Z,99211.45
2023-04-03T10:03:43.384Z,99215.50
2023-04-03T10:04:48.793Z,99214.73
2023-04-03T10:05:50.055Z,99219.55
2023-04-03T10:06:54.016Z,99220.05
2023-04-03T10:08:17.631Z,99222.84
2023-04-03T10:09:27.956Z,99227.16
2023-04-03T10:10:31.473Z,99231.20
2023-04-03T10:11:35.510Z,99220.55
2023-04-03T10:12:37.527Z,99228.16
2023-04-03T10:13:51.140Z,99230.19
2023-04-03T10:14:59.116Z,99235.00
2023-04-03T10:16:18.240Z,99228.66
2023-04-03T10:17:43.302Z,99230.19
2023-04-03T10:19:02.711Z,99227.39
2023-04-03T10:20:09.235Z,99232.97
2023-04-03T10:23:13.610Z,99235.30
2023-04-03T10:25:56.351Z,99229.22
2023-04-03T10:32:06.605Z,99238.87
2023-04-03T10:33:40.714Z,99234.29
2023-04-03T10:34:51.667Z,99238.86
2023-04-03T10:36:13.996Z,99239.88
2023-04-03T10:37:27.963Z,99240.64
2023-04-03T10:39:05.063Z,99236.09
2023-04-03T10:40:36.325Z,99243.70
2023-04-03T10:42:15.160Z,99244.45
2023-04-03T10:45:27.842Z,99242.94
2023-04-03T10:46:41.686Z,99252.06
2023-04-03T10:48:01.908Z,99239.37
2023-04-03T10:49:18.909Z,99247.75
2023-04-03T10:50:28.332Z,99246.48
2023-04-03T10:51:34.647Z,99251.30
2023-04-03T10:52:49.135Z,99255.35
2023-04-03T10:54:09.683Z,99254.09
2023-04-03T10:56:57.954Z,99248.52
2023-04-03T10:57:56.254Z,99256.88
2023-04-03T10:59:14.743Z,99263.22
2023-04-03T11:01:35.058Z,99257.38
2023-04-03T11:04:05.600Z,99255.36
2023-04-03T11:07:54.212Z,99256.88
2023-04-03T11:10:23.503Z,99253.33
2023-04-03T11:11:35.838Z,99264.74
2023-04-03T11:14:14.230Z,99255.61
2023-04-03T11:15:17.555Z,99264.24
2023-04-03T11:16:24.692Z,99259.16
2023-04-03T11:17:36.493Z,99263.98
2023-04-03T11:20:12.976Z,99275.64
2023-04-03T11:21:18.812Z,99270.32
2023-04-03T11:22:29.469Z,99264.74
2023-04-03T11:23:48.282Z,99265.50
2023-04-03T11:24:41.917Z,99262.22
2023-04-03T11:25:45.686Z,99265.77
2023-04-03T11:26:47.940Z,99268.05
2023-04-03T11:28:05.474Z,99245.73
2023-04-03T11:29:15.721Z,99265.27
2023-04-03T11:30:21.399Z,99261.18
2023-04-03T11:33:16.543Z,99265.27
2023-04-03T11:34:25.616Z,99262.47
2023-04-03T11:35:28.134Z,99268.05
2023-04-03T11:36:35.810Z,99265.27
2023-04-03T11:38:49.746Z,99271.61
2023-04-03T11:39:58.314Z,99259.91
2023-04-03T11:41:00.888Z,99269.80
2023-04-03T11:43:49.551Z,99267.81
2023-04-03T11:44:52.073Z,99266.02
2023-04-03T11:45:58.674Z,99268.04
2023-04-03T11:47:02.065Z,99272.36
2023-04-03T11:49:53.707Z,99257.41
2023-04-03T11:50:57.035Z,99268.80
2023-04-03T11:51:59.052Z,99269.56
2023-04-03T11:53:14.007Z,99267.53
2023-04-03T11:54:45.111Z,99261.20
2023-04-03T11:55:50.054Z,99266.02
2023-04-03T11:56:52.485Z,99269.56
2023-04-03T11:58:03.784Z,99268.80
2023-04-03T11:59:17.566Z,99268.04
2023-04-03T12:00:45.876Z,99269.56
2023-04-03T12:01:51.523Z,99266.52
2023-04-03T12:02:55.521Z,99271.33
2023-04-03T12:04:01.974Z,99266.52
2023-04-03T12:05:29.690Z,99269.30
2023-04-03T12:06:38.695Z,99268.28
2023-04-03T12:07:40.896Z,99277.41
2023-04-03T12:08:47.557Z,99268.28
2023-04-03T12:09:55.336Z,99275.13
2023-04-03T12:11:13.521Z,99279.44
2023-04-03T12:13:51.274Z,99279.98
2023-04-03T12:14:53.315Z,99280.20
2023-04-03T12:17:12.325Z,99284.80
2023-04-03T12:18:51.869Z,99289.08
2023-04-03T12:19:57.597Z,99275.13
2023-04-03T12:21:03.765Z,99285.78
2023-04-03T12:22:08.708Z,99285.02
2023-04-03T12:23:34.724Z,99294.16
2023-04-03T12:24:38.912Z,99291.36
2023-04-03T12:25:44.676Z,99296.94
2023-04-03T12:27:00.954Z,99293.65
2023-04-03T12:28:05.645Z,99292.38
2023-04-03T12:29:26.528Z,99297.96
2023-04-03T12:30:30.923Z,99295.17
2023-04-03T12:31:42.012Z,99302.02
2023-04-03T12:32:49.376Z,99299.99
2023-04-03T12:35:52.683Z,99287.34
2023-04-03T12:37:03.852Z,99305.57
2023-04-03T12:38:28.014Z,99301.52
2023-04-03T12:39:59.686Z,99307.86
2023-04-03T12:41:24.661Z,99309.88
2023-04-03T12:43:57.918Z,99307.37
2023-04-03T12:45:15.292Z,99317.99
2023-04-03T12:46:24.486Z,99313.68
2023-04-03T12:47:35.592Z,99318.50
2023-04-03T12:48:56.899Z,99325.34
2023-04-03T12:50:02.248Z,99321.05
2023-04-03T12:52:40.906Z,99321.30
2023-04-03T12:53:43.256Z,99310.90
2023-04-03T12:54:47.841Z,99317.74
2023-04-03T12:57:25.212Z,99316.23
2023-04-03T12:58:28.919Z,99321.03
2023-04-03T12:59:31.471Z,99329.40
2023-04-03T13:00:35.592Z,99329.40
2023-04-03T13:01:37.645Z,99332.19
2023-04-03T13:02:40.282Z,99334.22
2023-04-03T13:03:47.931Z,99332.69
2023-04-03T13:04:52.034Z,99336.24
2023-04-03T13:07:10.340Z,99324.08
2023-04-03T13:08:13.162Z,99331.66
2023-04-03T13:09:26.667Z,99328.11
2023-04-03T13:10:29.493Z,99330.14
2023-04-03T13:11:38.835Z,99337.74
2023-04-03T13:12:54.950Z,99327.84
2023-04-03T13:15:27.742Z,99337.27
2023-04-03T13:16:30.018Z,99345.58
2023-04-03T13:17:32.479Z,99341.27
2023-04-03T13:18:35.340Z,99351.66
2023-04-03T13:19:37.944Z,99345.85
2023-04-03T13:20:40.256Z,99341.00
2023-04-03T13:21:42.419Z,99352.69
2023-04-03T13:22:54.218Z,99347.88
2023-04-03T13:25:10.106Z,99347.38
2023-04-03T13:26:13.478Z,99352.13
2023-04-03T13:27:15.982Z,99354.16
2023-04-03T13:28:20.852Z,99358.20
2023-04-03T13:29:31.443Z,99356.68
2023-04-03T13:30:35.904Z,99359.20
2023-04-03T13:31:39.274Z,99358.17
2023-04-03T13:32:41.721Z,99359.94
2023-04-03T13:35:17.786Z,99360.23
2023-04-03T13:37:30.064Z,99364.78
2023-04-03T13:38:32.744Z,99364.75
2023-04-03T13:39:38.961Z,99361.20
2023-04-03T13:42:01.043Z,99374.41
2023-04-03T13:44:18.666Z,99376.17
2023-04-03T13:45:24.220Z,99378.16
2023-04-03T13:46:27.548Z,99376.63
2023-04-03T13:47:33.570Z,99380.67
2023-04-03T13:48:43.994Z,99382.70
2023-04-03T13:50:14.669Z,99380.41
2023-04-03T13:51:29.937Z,99383.69
2023-04-03T13:52:34.227Z,99387.47
2023-04-03T13:53:51.904Z,99389.49
2023-04-03T13:57:19.157Z,99386.74
2023-04-03T13:58:23.531Z,99390.25
2023-04-03T13:59:35.423Z,99392.27